UNEE

Kemerovo Airport

Kemerovo, Russian Federation
TAF UNEE 260500Z 2606/2706 24008G15MPS 9999 BKN020 BECMG 2611/2613 24003G08MPS
Issued Valid From Valid To
Apr-26 @ 05:00 UTC
(52 minutes ago)
Apr-26 @ 06:00 UTC
(in 8 minutes)
Apr-27 @ 06:00 UTC
(in 24 hours)
Apr-26 @ 06:00 to Apr-26 @ 11:00
TAF UNEE 260500Z 2606/2706 24008G15MPS 9999 BKN020
Wind Visibility Clouds
240° at 16 knots
 Gusting to 29 knots
10,000+ meters
  • Broken at 2,000' AGL
Becoming Apr-26 @ 11:00 to Apr-27 @ 06:00
BECMG 2611/2613 24003G08MPS
Wind Visibility Clouds
240° at 6 knots
 Gusting to 16 knots
10,000+ meters
  • Broken at 2,000' AGL
TAF UNEE 260500Z 2606/2706 24008G15MPS 9999 BKN020 BECMG 2611/2613 24003G08MPS
Issued Apr-26 @ 05:00 UTC
(52 minutes ago)
Valid From Apr-26 @ 06:00 UTC
(in 8 minutes)
Valid To Apr-27 @ 06:00 UTC
(in 24 hours)
Apr-26 @ 06:00 - Apr-26 @ 11:00
Wind Visibility
240° at 16 knots
 Gusting to 29 knots
10,000+ meters
Clouds
  • Broken at 2,000' AGL
Becoming Apr-26 @ 11:00 - Apr-27 @ 06:00
Wind Visibility
240° at 6 knots
 Gusting to 16 knots
10,000+ meters
Clouds
  • Broken at 2,000' AGL